sensor_id;sensor_type;location;lat;lon;timestamp;temperature;humidity
21662;DHT22;10992;48.170;8.596;2022-10-04T00:07:02;4.20;99.90
21662;DHT22;10992;48.170;8.596;2022-10-04T00:09:40;4.20;99.90
21662;DHT22;10992;48.170;8.596;2022-10-04T00:12:25;4.10;99.90
21662;DHT22;10992;48.170;8.596;2022-10-04T00:14:57;4.00;99.90
21662;DHT22;10992;48.170;8.596;2022-10-04T00:17:30;4.10;99.90
21662;DHT22;10992;48.170;8.596;2022-10-04T00:20:03;4.10;99.90
21662;DHT22;10992;48.170;8.596;2022-10-04T00:23:29;4.00;99.90
21662;DHT22;10992;48.170;8.596;2022-10-04T00:28:48;3.90;99.90
21662;DHT22;10992;48.170;8.596;2022-10-04T00:31:26;3.80;99.90
21662;DHT22;10992;48.170;8.596;2022-10-04T00:36:46;3.70;99.90
21662;DHT22;10992;48.170;8.596;2022-10-04T00:39:25;3.60;99.90
21662;DHT22;10992;48.170;8.596;2022-10-04T00:42:13;3.60;99.90
21662;DHT22;10992;48.170;8.596;2022-10-04T00:44:52;3.50;99.90
21662;DHT22;10992;48.170;8.596;2022-10-04T00:50:10;3.60;99.90
21662;DHT22;10992;48.170;8.596;2022-10-04T00:52:43;3.60;99.90
21662;DHT22;10992;48.170;8.596;2022-10-04T00:55:22;3.50;99.90
21662;DHT22;10992;48.170;8.596;2022-10-04T00:57:58;3.30;99.90
21662;DHT22;10992;48.170;8.596;2022-10-04T01:00:25;3.20;99.90
21662;DHT22;10992;48.170;8.596;2022-10-04T01:02:59;3.20;99.90
21662;DHT22;10992;48.170;8.596;2022-10-04T01:05:33;3.30;99.90
21662;DHT22;10992;48.170;8.596;2022-10-04T01:08:13;3.30;99.90
21662;DHT22;10992;48.170;8.596;2022-10-04T01:10:51;3.20;99.90
21662;DHT22;10992;48.170;8.596;2022-10-04T01:13:26;3.10;99.90
21662;DHT22;10992;48.170;8.596;2022-10-04T01:16:27;3.10;99.90
21662;DHT22;10992;48.170;8.596;2022-10-04T01:18:54;3.10;99.90
21662;DHT22;10992;48.170;8.596;2022-10-04T01:21:25;3.30;99.90
21662;DHT22;10992;48.170;8.596;2022-10-04T01:28:57;3.30;99.90
21662;DHT22;10992;48.170;8.596;2022-10-04T01:31:33;3.30;99.90
21662;DHT22;10992;48.170;8.596;2022-10-04T01:34:00;3.20;99.90
21662;DHT22;10992;48.170;8.596;2022-10-04T01:36:28;3.20;99.90
21662;DHT22;10992;48.170;8.596;2022-10-04T01:38:56;3.30;99.90
21662;DHT22;10992;48.170;8.596;2022-10-04T01:41:33;3.30;99.90
21662;DHT22;10992;48.170;8.596;2022-10-04T01:44:04;3.30;99.90
21662;DHT22;10992;48.170;8.596;2022-10-04T01:46:35;3.20;99.90
21662;DHT22;10992;48.170;8.596;2022-10-04T01:49:11;3.00;99.90
21662;DHT22;10992;48.170;8.596;2022-10-04T01:51:46;3.00;99.90
21662;DHT22;10992;48.170;8.596;2022-10-04T01:54:18;2.90;99.90
21662;DHT22;10992;48.170;8.596;2022-10-04T01:59:23;2.90;99.90
21662;DHT22;10992;48.170;8.596;2022-10-04T02:04:33;3.10;99.90
21662;DHT22;10992;48.170;8.596;2022-10-04T02:07:02;3.10;99.90
21662;DHT22;10992;48.170;8.596;2022-10-04T02:09:34;3.10;99.90
21662;DHT22;10992;48.170;8.596;2022-10-04T02:12:04;3.00;99.90
21662;DHT22;10992;48.170;8.596;2022-10-04T02:14:34;3.00;99.90
21662;DHT22;10992;48.170;8.596;2022-10-04T02:17:06;2.90;99.90
21662;DHT22;10992;48.170;8.596;2022-10-04T02:19:39;3.00;99.90
21662;DHT22;10992;48.170;8.596;2022-10-04T02:22:08;3.00;99.90
21662;DHT22;10992;48.170;8.596;2022-10-04T02:24:43;3.00;99.90
21662;DHT22;10992;48.170;8.596;2022-10-04T02:27:11;2.90;99.90
21662;DHT22;10992;48.170;8.596;2022-10-04T02:29:38;2.80;99.90
21662;DHT22;10992;48.170;8.596;2022-10-04T02:32:06;2.80;99.90
21662;DHT22;10992;48.170;8.596;2022-10-04T02:34:52;2.80;99.90
21662;DHT22;10992;48.170;8.596;2022-10-04T02:37:26;2.80;99.90
21662;DHT22;10992;48.170;8.596;2022-10-04T02:40:18;3.00;99.90
21662;DHT22;10992;48.170;8.596;2022-10-04T02:42:57;3.00;99.90
21662;DHT22;10992;48.170;8.596;2022-10-04T02:45:42;3.00;99.90
21662;DHT22;10992;48.170;8.596;2022-10-04T02:56:30;2.70;99.90
21662;DHT22;10992;48.170;8.596;2022-10-04T02:59:02;2.60;99.90
21662;DHT22;10992;48.170;8.596;2022-10-04T03:04:11;2.60;99.90
21662;DHT22;10992;48.170;8.596;2022-10-04T03:06:42;2.50;99.90
21662;DHT22;10992;48.170;8.596;2022-10-04T03:09:11;2.50;99.90
21662;DHT22;10992;48.170;8.596;2022-10-04T03:11:39;2.60;99.90
21662;DHT22;10992;48.170;8.596;2022-10-04T03:14:22;2.70;99.90
21662;DHT22;10992;48.170;8.596;2022-10-04T03:16:52;2.70;99.90
21662;DHT22;10992;48.170;8.596;2022-10-04T03:19:24;2.80;99.90
21662;DHT22;10992;48.170;8.596;2022-10-04T03:22:17;3.00;99.90
21662;DHT22;10992;48.170;8.596;2022-10-04T03:24:46;3.20;99.90
21662;DHT22;10992;48.170;8.596;2022-10-04T03:27:22;3.30;99.90
21662;DHT22;10992;48.170;8.596;2022-10-04T03:29:52;3.40;99.90
21662;DHT22;10992;48.170;8.596;2022-10-04T03:32:25;3.50;99.90
21662;DHT22;10992;48.170;8.596;2022-10-04T03:35:02;3.50;99.90
21662;DHT22;10992;48.170;8.596;2022-10-04T03:37:31;3.40;99.90
21662;DHT22;10992;48.170;8.596;2022-10-04T03:40:01;3.30;99.90
21662;DHT22;10992;48.170;8.596;2022-10-04T03:42:31;3.20;99.90
21662;DHT22;10992;48.170;8.596;2022-10-04T03:45:01;3.10;99.90
21662;DHT22;10992;48.170;8.596;2022-10-04T03:47:40;3.10;99.90
21662;DHT22;10992;48.170;8.596;2022-10-04T03:50:25;3.10;99.90
21662;DHT22;10992;48.170;8.596;2022-10-04T03:52:59;3.00;99.90
21662;DHT22;10992;48.170;8.596;2022-10-04T03:55:39;3.00;99.90
21662;DHT22;10992;48.170;8.596;2022-10-04T03:58:15;3.00;99.90
21662;DHT22;10992;48.170;8.596;2022-10-04T04:04:03;2.90;99.90
21662;DHT22;10992;48.170;8.596;2022-10-04T04:09:38;2.80;99.90
21662;DHT22;10992;48.170;8.596;2022-10-04T04:12:31;2.80;99.90
21662;DHT22;10992;48.170;8.596;2022-10-04T04:15:01;2.70;99.90
21662;DHT22;10992;48.170;8.596;2022-10-04T04:17:34;2.70;99.90
21662;DHT22;10992;48.170;8.596;2022-10-04T04:20:04;2.50;99.90
21662;DHT22;10992;48.170;8.596;2022-10-04T04:22:34;2.40;99.90
21662;DHT22;10992;48.170;8.596;2022-10-04T04:25:05;2.60;99.90
21662;DHT22;10992;48.170;8.596;2022-10-04T04:27:36;2.50;99.90
21662;DHT22;10992;48.170;8.596;2022-10-04T04:30:07;2.50;99.90
21662;DHT22;10992;48.170;8.596;2022-10-04T04:32:40;2.50;99.90
21662;DHT22;10992;48.170;8.596;2022-10-04T04:35:39;2.50;99.90
21662;DHT22;10992;48.170;8.596;2022-10-04T04:38:26;2.60;99.90
21662;DHT22;10992;48.170;8.596;2022-10-04T04:40:53;2.60;99.90
21662;DHT22;10992;48.170;8.596;2022-10-04T04:43:24;2.60;99.90
21662;DHT22;10992;48.170;8.596;2022-10-04T04:45:52;2.50;99.90
21662;DHT22;10992;48.170;8.596;2022-10-04T04:48:42;2.50;99.90
21662;DHT22;10992;48.170;8.596;2022-10-04T04:51:18;2.40;99.90
21662;DHT22;10992;48.170;8.596;2022-10-04T04:53:46;2.40;99.90
21662;DHT22;10992;48.170;8.596;2022-10-04T04:56:21;2.40;99.90
21662;DHT22;10992;48.170;8.596;2022-10-04T04:58:50;2.40;99.90
21662;DHT22;10992;48.170;8.596;2022-10-04T05:01:25;2.40;99.90
21662;DHT22;10992;48.170;8.596;2022-10-04T05:06:36;2.40;99.90
21662;DHT22;10992;48.170;8.596;2022-10-04T05:09:04;2.50;99.90
21662;DHT22;10992;48.170;8.596;2022-10-04T05:11:35;2.60;99.90
21662;DHT22;10992;48.170;8.596;2022-10-04T05:14:10;2.60;99.90
21662;DHT22;10992;48.170;8.596;2022-10-04T05:16:45;2.60;99.90
21662;DHT22;10992;48.170;8.596;2022-10-04T05:19:18;2.60;99.90
21662;DHT22;10992;48.170;8.596;2022-10-04T05:21:50;2.80;99.90
21662;DHT22;10992;48.170;8.596;2022-10-04T05:24:30;2.80;99.90
21662;DHT22;10992;48.170;8.596;2022-10-04T05:27:02;2.70;99.90
21662;DHT22;10992;48.170;8.596;2022-10-04T05:29:35;2.60;99.90
21662;DHT22;10992;48.170;8.596;2022-10-04T05:32:23;2.60;99.90
21662;DHT22;10992;48.170;8.596;2022-10-04T05:34:52;2.60;99.90
21662;DHT22;10992;48.170;8.596;2022-10-04T05:40:54;2.60;99.90
21662;DHT22;10992;48.170;8.596;2022-10-04T05:46:27;2.70;99.90
21662;DHT22;10992;48.170;8.596;2022-10-04T05:49:04;2.80;99.90
21662;DHT22;10992;48.170;8.596;2022-10-04T05:51:34;2.80;99.90
21662;DHT22;10992;48.170;8.596;2022-10-04T05:54:04;2.90;99.90
21662;DHT22;10992;48.170;8.596;2022-10-04T06:02:23;4.40;99.90
21662;DHT22;10992;48.170;8.596;2022-10-04T06:05:10;4.30;99.90
21662;DHT22;10992;48.170;8.596;2022-10-04T06:10:36;4.10;99.90
21662;DHT22;10992;48.170;8.596;2022-10-04T06:15:49;4.30;99.90
21662;DHT22;10992;48.170;8.596;2022-10-04T06:24:16;4.60;99.90
21662;DHT22;10992;48.170;8.596;2022-10-04T06:26:51;4.70;99.90
21662;DHT22;10992;48.170;8.596;2022-10-04T06:29:24;4.80;99.90
21662;DHT22;10992;48.170;8.596;2022-10-04T06:43:41;5.60;99.90
21662;DHT22;10992;48.170;8.596;2022-10-04T06:57:30;5.80;99.90
21662;DHT22;10992;48.170;8.596;2022-10-04T07:02:34;6.90;99.90
21662;DHT22;10992;48.170;8.596;2022-10-04T07:05:10;7.80;99.90
21662;DHT22;10992;48.170;8.596;2022-10-04T07:07:41;8.70;99.90
21662;DHT22;10992;48.170;8.596;2022-10-04T07:10:53;10.00;99.90
21662;DHT22;10992;48.170;8.596;2022-10-04T07:16:05;11.00;99.90
21662;DHT22;10992;48.170;8.596;2022-10-04T07:21:26;10.40;99.90
21662;DHT22;10992;48.170;8.596;2022-10-04T07:24:01;10.10;99.90
21662;DHT22;10992;48.170;8.596;2022-10-04T07:26:45;9.90;99.90
21662;DHT22;10992;48.170;8.596;2022-10-04T07:29:30;9.50;99.90
21662;DHT22;10992;48.170;8.596;2022-10-04T07:34:42;9.00;99.90
21662;DHT22;10992;48.170;8.596;2022-10-04T07:37:12;8.90;99.90
21662;DHT22;10992;48.170;8.596;2022-10-04T07:39:45;9.10;99.90
21662;DHT22;10992;48.170;8.596;2022-10-04T07:42:30;9.00;99.90
21662;DHT22;10992;48.170;8.596;2022-10-04T07:48:13;9.40;99.90
21662;DHT22;10992;48.170;8.596;2022-10-04T07:54:08;9.80;99.90
21662;DHT22;10992;48.170;8.596;2022-10-04T07:56:48;10.20;99.90
21662;DHT22;10992;48.170;8.596;2022-10-04T08:02:06;10.90;99.90
21662;DHT22;10992;48.170;8.596;2022-10-04T08:07:51;11.20;99.90
21662;DHT22;10992;48.170;8.596;2022-10-04T08:10:54;11.70;99.90
21662;DHT22;10992;48.170;8.596;2022-10-04T08:13:37;11.80;99.90
21662;DHT22;10992;48.170;8.596;2022-10-04T08:16:33;12.20;99.90
21662;DHT22;10992;48.170;8.596;2022-10-04T08:25:04;11.70;99.90
21662;DHT22;10992;48.170;8.596;2022-10-04T08:30:16;11.40;99.90
21662;DHT22;10992;48.170;8.596;2022-10-04T08:44:02;11.30;99.90
21662;DHT22;10992;48.170;8.596;2022-10-04T08:56:02;13.00;99.90
21662;DHT22;10992;48.170;8.596;2022-10-04T09:04:55;14.30;99.90
21662;DHT22;10992;48.170;8.596;2022-10-04T09:07:57;13.90;99.90
21662;DHT22;10992;48.170;8.596;2022-10-04T09:16:17;13.80;99.90
21662;DHT22;10992;48.170;8.596;2022-10-04T09:21:42;13.30;99.90
21662;DHT22;10992;48.170;8.596;2022-10-04T09:24:46;13.20;99.90
21662;DHT22;10992;48.170;8.596;2022-10-04T09:33:33;15.30;99.90
21662;DHT22;10992;48.170;8.596;2022-10-04T09:39:01;16.80;99.90
21662;DHT22;10992;48.170;8.596;2022-10-04T10:11:19;17.30;99.90
21662;DHT22;10992;48.170;8.596;2022-10-04T10:17:23;16.70;99.90
21662;DHT22;10992;48.170;8.596;2022-10-04T10:22:58;17.10;99.90
21662;DHT22;10992;48.170;8.596;2022-10-04T10:25:45;17.60;99.90
21662;DHT22;10992;48.170;8.596;2022-10-04T10:31:22;18.30;99.90
21662;DHT22;10992;48.170;8.596;2022-10-04T10:37:09;18.60;99.90
21662;DHT22;10992;48.170;8.596;2022-10-04T10:48:09;18.90;99.90
21662;DHT22;10992;48.170;8.596;2022-10-04T11:05:45;19.10;99.90
21662;DHT22;10992;48.170;8.596;2022-10-04T11:25:58;19.90;99.90
21662;DHT22;10992;48.170;8.596;2022-10-04T11:32:03;20.20;99.90
21662;DHT22;10992;48.170;8.596;2022-10-04T11:49:46;20.10;99.90
21662;DHT22;10992;48.170;8.596;2022-10-04T11:52:41;19.80;99.90
21662;DHT22;10992;48.170;8.596;2022-10-04T12:00:58;19.60;99.90
21662;DHT22;10992;48.170;8.596;2022-10-04T12:06:38;19.70;99.90
21662;DHT22;10992;48.170;8.596;2022-10-04T12:09:45;19.90;99.90
21662;DHT22;10992;48.170;8.596;2022-10-04T12:12:40;19.70;99.90
21662;DHT22;10992;48.170;8.596;2022-10-04T12:31:49;20.60;99.90
21662;DHT22;10992;48.170;8.596;2022-10-04T12:34:29;20.20;99.90
21662;DHT22;10992;48.170;8.596;2022-10-04T12:40:12;20.40;99.90
21662;DHT22;10992;48.170;8.596;2022-10-04T12:45:33;20.00;99.90
21662;DHT22;10992;48.170;8.596;2022-10-04T12:48:19;20.50;99.90
21662;DHT22;10992;48.170;8.596;2022-10-04T12:59:56;20.80;99.90
21662;DHT22;10992;48.170;8.596;2022-10-04T13:02:38;20.70;99.90
21662;DHT22;10992;48.170;8.596;2022-10-04T13:16:39;22.00;99.90
21662;DHT22;10992;48.170;8.596;2022-10-04T13:22:50;21.90;99.90
21662;DHT22;10992;48.170;8.596;2022-10-04T13:28:27;22.00;99.90
21662;DHT22;10992;48.170;8.596;2022-10-04T13:31:09;22.40;99.90
21662;DHT22;10992;48.170;8.596;2022-10-04T13:33:59;22.60;99.90
21662;DHT22;10992;48.170;8.596;2022-10-04T13:39:42;22.10;99.90
21662;DHT22;10992;48.170;8.596;2022-10-04T13:45:04;22.60;99.90
21662;DHT22;10992;48.170;8.596;2022-10-04T13:59:25;22.00;99.90
21662;DHT22;10992;48.170;8.596;2022-10-04T14:07:56;21.60;99.90
21662;DHT22;10992;48.170;8.596;2022-10-04T14:35:21;20.70;99.90
21662;DHT22;10992;48.170;8.596;2022-10-04T14:44:08;20.70;99.90
21662;DHT22;10992;48.170;8.596;2022-10-04T15:03:37;20.10;99.90
21662;DHT22;10992;48.170;8.596;2022-10-04T15:06:20;20.00;99.90
21662;DHT22;10992;48.170;8.596;2022-10-04T15:11:39;19.80;99.90
21662;DHT22;10992;48.170;8.596;2022-10-04T15:14:38;19.70;99.90
21662;DHT22;10992;48.170;8.596;2022-10-04T15:17:31;19.70;99.90
21662;DHT22;10992;48.170;8.596;2022-10-04T15:20:15;19.50;99.90
21662;DHT22;10992;48.170;8.596;2022-10-04T15:22:54;19.50;99.90
21662;DHT22;10992;48.170;8.596;2022-10-04T15:25:45;19.40;99.90
21662;DHT22;10992;48.170;8.596;2022-10-04T15:28:52;19.50;99.90
21662;DHT22;10992;48.170;8.596;2022-10-04T15:31:42;19.30;99.90
21662;DHT22;10992;48.170;8.596;2022-10-04T15:34:42;19.00;99.90
21662;DHT22;10992;48.170;8.596;2022-10-04T15:37:25;18.90;99.90
21662;DHT22;10992;48.170;8.596;2022-10-04T15:42:35;19.00;99.90
21662;DHT22;10992;48.170;8.596;2022-10-04T15:50:30;18.80;99.90
21662;DHT22;10992;48.170;8.596;2022-10-04T16:10:18;18.00;99.90
21662;DHT22;10992;48.170;8.596;2022-10-04T16:15:35;17.70;99.90
21662;DHT22;10992;48.170;8.596;2022-10-04T16:21:24;17.30;99.90
21662;DHT22;10992;48.170;8.596;2022-10-04T16:32:19;16.80;99.90
21662;DHT22;10992;48.170;8.596;2022-10-04T16:34:49;16.50;99.90
21662;DHT22;10992;48.170;8.596;2022-10-04T16:40:36;15.90;99.90
21662;DHT22;10992;48.170;8.596;2022-10-04T16:51:44;15.00;99.90
21662;DHT22;10992;48.170;8.596;2022-10-04T17:07:36;14.10;99.90
21662;DHT22;10992;48.170;8.596;2022-10-04T17:21:11;13.40;99.90
21662;DHT22;10992;48.170;8.596;2022-10-04T17:29:33;13.40;99.90
21662;DHT22;10992;48.170;8.596;2022-10-04T17:32:08;13.50;99.90
21662;DHT22;10992;48.170;8.596;2022-10-04T17:37:59;13.40;99.90
21662;DHT22;10992;48.170;8.596;2022-10-04T17:43:23;13.30;99.90
21662;DHT22;10992;48.170;8.596;2022-10-04T17:46:03;13.20;99.90
21662;DHT22;10992;48.170;8.596;2022-10-04T17:49:00;13.10;99.90
21662;DHT22;10992;48.170;8.596;2022-10-04T17:51:53;13.00;99.90
21662;DHT22;10992;48.170;8.596;2022-10-04T17:54:57;12.90;99.90
21662;DHT22;10992;48.170;8.596;2022-10-04T18:01:04;12.60;99.90
21662;DHT22;10992;48.170;8.596;2022-10-04T18:03:37;12.60;99.90
21662;DHT22;10992;48.170;8.596;2022-10-04T18:06:29;12.50;99.90
21662;DHT22;10992;48.170;8.596;2022-10-04T18:09:18;12.50;99.90
21662;DHT22;10992;48.170;8.596;2022-10-04T18:11:52;12.50;99.90
21662;DHT22;10992;48.170;8.596;2022-10-04T18:16:57;12.30;99.90
21662;DHT22;10992;48.170;8.596;2022-10-04T18:19:43;12.10;99.90
21662;DHT22;10992;48.170;8.596;2022-10-04T18:22:16;12.00;99.90
21662;DHT22;10992;48.170;8.596;2022-10-04T18:24:48;11.90;99.90
21662;DHT22;10992;48.170;8.596;2022-10-04T18:27:28;11.80;99.90
21662;DHT22;10992;48.170;8.596;2022-10-04T18:30:19;11.80;99.90
21662;DHT22;10992;48.170;8.596;2022-10-04T18:32:49;11.80;99.90
21662;DHT22;10992;48.170;8.596;2022-10-04T18:35:28;11.80;99.90
21662;DHT22;10992;48.170;8.596;2022-10-04T18:38:18;11.70;99.90
21662;DHT22;10992;48.170;8.596;2022-10-04T18:40:54;11.70;99.90
21662;DHT22;10992;48.170;8.596;2022-10-04T18:43:36;11.60;99.90
21662;DHT22;10992;48.170;8.596;2022-10-04T18:48:57;11.50;99.90
21662;DHT22;10992;48.170;8.596;2022-10-04T18:57:19;11.40;99.90
21662;DHT22;10992;48.170;8.596;2022-10-04T19:00:08;11.30;99.90
21662;DHT22;10992;48.170;8.596;2022-10-04T19:08:29;11.20;99.90
21662;DHT22;10992;48.170;8.596;2022-10-04T19:11:04;11.20;99.90
21662;DHT22;10992;48.170;8.596;2022-10-04T19:13:53;11.20;99.90
21662;DHT22;10992;48.170;8.596;2022-10-04T19:16:41;11.10;99.90
21662;DHT22;10992;48.170;8.596;2022-10-04T19:19:21;11.10;99.90
21662;DHT22;10992;48.170;8.596;2022-10-04T19:22:01;11.00;99.90
21662;DHT22;10992;48.170;8.596;2022-10-04T19:27:05;10.90;99.90
21662;DHT22;10992;48.170;8.596;2022-10-04T19:32:41;10.80;99.90
21662;DHT22;10992;48.170;8.596;2022-10-04T19:35:36;10.70;99.90
21662;DHT22;10992;48.170;8.596;2022-10-04T19:38:29;10.70;99.90
21662;DHT22;10992;48.170;8.596;2022-10-04T19:41:34;10.70;99.90
21662;DHT22;10992;48.170;8.596;2022-10-04T19:44:28;10.60;99.90
21662;DHT22;10992;48.170;8.596;2022-10-04T19:47:08;10.60;99.90
21662;DHT22;10992;48.170;8.596;2022-10-04T19:55:22;10.50;99.90
21662;DHT22;10992;48.170;8.596;2022-10-04T19:58:01;10.40;99.90
21662;DHT22;10992;48.170;8.596;2022-10-04T20:00:32;10.40;99.90
21662;DHT22;10992;48.170;8.596;2022-10-04T20:03:01;10.30;99.90
21662;DHT22;10992;48.170;8.596;2022-10-04T20:05:43;10.20;99.90
21662;DHT22;10992;48.170;8.596;2022-10-04T20:08:12;10.10;99.90
21662;DHT22;10992;48.170;8.596;2022-10-04T20:10:40;10.10;99.90
21662;DHT22;10992;48.170;8.596;2022-10-04T20:15:48;10.00;99.90
21662;DHT22;10992;48.170;8.596;2022-10-04T20:21:07;9.70;99.90
21662;DHT22;10992;48.170;8.596;2022-10-04T20:26:09;9.50;99.90
21662;DHT22;10992;48.170;8.596;2022-10-04T20:28:37;9.50;99.90
21662;DHT22;10992;48.170;8.596;2022-10-04T20:33:53;9.50;99.90
21662;DHT22;10992;48.170;8.596;2022-10-04T20:39:00;9.40;99.90
21662;DHT22;10992;48.170;8.596;2022-10-04T20:43:59;9.50;99.90
21662;DHT22;10992;48.170;8.596;2022-10-04T20:46:36;9.50;99.90
21662;DHT22;10992;48.170;8.596;2022-10-04T20:49:11;9.50;99.90
21662;DHT22;10992;48.170;8.596;2022-10-04T20:51:46;9.40;99.90
21662;DHT22;10992;48.170;8.596;2022-10-04T20:54:17;9.30;99.90
21662;DHT22;10992;48.170;8.596;2022-10-04T20:56:47;9.30;99.90
21662;DHT22;10992;48.170;8.596;2022-10-04T20:59:16;9.30;99.90
21662;DHT22;10992;48.170;8.596;2022-10-04T21:01:59;9.40;99.90
21662;DHT22;10992;48.170;8.596;2022-10-04T21:04:28;9.30;99.90
21662;DHT22;10992;48.170;8.596;2022-10-04T21:09:27;9.20;99.90
21662;DHT22;10992;48.170;8.596;2022-10-04T21:11:55;9.30;99.90
21662;DHT22;10992;48.170;8.596;2022-10-04T21:14:24;9.30;99.90
21662;DHT22;10992;48.170;8.596;2022-10-04T21:16:52;9.30;99.90
21662;DHT22;10992;48.170;8.596;2022-10-04T21:22:07;9.30;99.90
21662;DHT22;10992;48.170;8.596;2022-10-04T21:24:35;9.20;99.90
21662;DHT22;10992;48.170;8.596;2022-10-04T21:27:03;9.20;99.90
21662;DHT22;10992;48.170;8.596;2022-10-04T21:29:30;9.30;99.90
21662;DHT22;10992;48.170;8.596;2022-10-04T21:31:58;9.30;99.90
21662;DHT22;10992;48.170;8.596;2022-10-04T21:34:25;9.30;99.90
21662;DHT22;10992;48.170;8.596;2022-10-04T21:37:12;9.30;99.90
21662;DHT22;10992;48.170;8.596;2022-10-04T21:39:39;9.30;99.90
21662;DHT22;10992;48.170;8.596;2022-10-04T21:42:06;9.30;99.90
21662;DHT22;10992;48.170;8.596;2022-10-04T21:44:33;9.30;99.90
21662;DHT22;10992;48.170;8.596;2022-10-04T21:47:00;9.20;99.90
21662;DHT22;10992;48.170;8.596;2022-10-04T21:49:27;9.20;99.90
21662;DHT22;10992;48.170;8.596;2022-10-04T21:51:53;9.20;99.90
21662;DHT22;10992;48.170;8.596;2022-10-04T21:54:20;9.20;99.90
21662;DHT22;10992;48.170;8.596;2022-10-04T21:56:47;9.20;99.90
21662;DHT22;10992;48.170;8.596;2022-10-04T21:59:14;9.20;99.90
21662;DHT22;10992;48.170;8.596;2022-10-04T22:01:41;9.20;99.90
21662;DHT22;10992;48.170;8.596;2022-10-04T22:04:08;9.20;99.90
21662;DHT22;10992;48.170;8.596;2022-10-04T22:06:35;9.20;99.90
21662;DHT22;10992;48.170;8.596;2022-10-04T22:09:02;9.20;99.90
21662;DHT22;10992;48.170;8.596;2022-10-04T22:11:29;9.10;99.90
21662;DHT22;10992;48.170;8.596;2022-10-04T22:13:56;9.10;99.90
21662;DHT22;10992;48.170;8.596;2022-10-04T22:16:23;9.10;99.90
21662;DHT22;10992;48.170;8.596;2022-10-04T22:18:50;9.10;99.90
21662;DHT22;10992;48.170;8.596;2022-10-04T22:21:16;9.10;99.90
21662;DHT22;10992;48.170;8.596;2022-10-04T22:23:44;9.10;99.90
21662;DHT22;10992;48.170;8.596;2022-10-04T22:26:17;9.10;99.90
21662;DHT22;10992;48.170;8.596;2022-10-04T22:28:53;9.10;99.90
21662;DHT22;10992;48.170;8.596;2022-10-04T22:31:24;9.10;99.90
21662;DHT22;10992;48.170;8.596;2022-10-04T22:33:53;9.10;99.90
21662;DHT22;10992;48.170;8.596;2022-10-04T22:36:25;9.10;99.90
21662;DHT22;10992;48.170;8.596;2022-10-04T22:38:59;9.10;99.90
21662;DHT22;10992;48.170;8.596;2022-10-04T22:41:31;9.10;99.90
21662;DHT22;10992;48.170;8.596;2022-10-04T22:44:06;9.10;99.90
21662;DHT22;10992;48.170;8.596;2022-10-04T22:46:38;9.00;99.90
21662;DHT22;10992;48.170;8.596;2022-10-04T22:49:11;9.00;99.90
21662;DHT22;10992;48.170;8.596;2022-10-04T22:51:40;9.00;99.90
21662;DHT22;10992;48.170;8.596;2022-10-04T22:54:18;9.00;99.90
21662;DHT22;10992;48.170;8.596;2022-10-04T22:56:45;9.00;99.90
21662;DHT22;10992;48.170;8.596;2022-10-04T22:59:14;9.00;99.90
21662;DHT22;10992;48.170;8.596;2022-10-04T23:01:42;9.00;99.90
21662;DHT22;10992;48.170;8.596;2022-10-04T23:04:20;9.00;99.90
21662;DHT22;10992;48.170;8.596;2022-10-04T23:06:48;9.00;99.90
21662;DHT22;10992;48.170;8.596;2022-10-04T23:09:15;8.90;99.90
21662;DHT22;10992;48.170;8.596;2022-10-04T23:11:43;8.90;99.90
21662;DHT22;10992;48.170;8.596;2022-10-04T23:14:10;8.90;99.90
21662;DHT22;10992;48.170;8.596;2022-10-04T23:16:37;8.80;99.90
21662;DHT22;10992;48.170;8.596;2022-10-04T23:19:14;8.80;99.90
21662;DHT22;10992;48.170;8.596;2022-10-04T23:21:43;8.70;99.90
21662;DHT22;10992;48.170;8.596;2022-10-04T23:24:21;8.60;99.90
21662;DHT22;10992;48.170;8.596;2022-10-04T23:26:53;8.70;99.90
21662;DHT22;10992;48.170;8.596;2022-10-04T23:29:23;8.60;99.90
21662;DHT22;10992;48.170;8.596;2022-10-04T23:31:51;8.70;99.90
21662;DHT22;10992;48.170;8.596;2022-10-04T23:34:36;8.70;99.90
21662;DHT22;10992;48.170;8.596;2022-10-04T23:37:13;8.80;99.90
21662;DHT22;10992;48.170;8.596;2022-10-04T23:39:42;8.80;99.90
21662;DHT22;10992;48.170;8.596;2022-10-04T23:42:21;8.80;99.90
21662;DHT22;10992;48.170;8.596;2022-10-04T23:44:50;8.90;99.90
21662;DHT22;10992;48.170;8.596;2022-10-04T23:47:18;8.90;99.90
21662;DHT22;10992;48.170;8.596;2022-10-04T23:49:51;8.80;99.90
21662;DHT22;10992;48.170;8.596;2022-10-04T23:52:25;8.80;99.90
21662;DHT22;10992;48.170;8.596;2022-10-04T23:54:55;8.90;99.90
21662;DHT22;10992;48.170;8.596;2022-10-04T23:57:24;8.90;99.90
21662;DHT22;10992;48.170;8.596;2022-10-04T23:59:51;9.00;99.90
